sensor_id;sensor_type;location;lat;lon;timestamp;temperature;humidity
21759;DHT22;11041;50.854;20.580;2023-12-20T00:01:12;6.50;99.90
21759;DHT22;11041;50.854;20.580;2023-12-20T00:03:43;6.60;99.90
21759;DHT22;11041;50.854;20.580;2023-12-20T00:06:10;6.50;99.90
21759;DHT22;11041;50.854;20.580;2023-12-20T00:08:42;6.40;99.90
21759;DHT22;11041;50.854;20.580;2023-12-20T00:11:14;6.40;99.90
21759;DHT22;11041;50.854;20.580;2023-12-20T00:13:45;6.50;99.90
21759;DHT22;11041;50.854;20.580;2023-12-20T00:16:15;6.50;99.90
21759;DHT22;11041;50.854;20.580;2023-12-20T00:18:41;6.50;99.90
21759;DHT22;11041;50.854;20.580;2023-12-20T00:21:08;6.40;99.90
21759;DHT22;11041;50.854;20.580;2023-12-20T00:23:40;6.40;99.90
21759;DHT22;11041;50.854;20.580;2023-12-20T00:26:07;6.40;99.90
21759;DHT22;11041;50.854;20.580;2023-12-20T00:28:35;6.40;99.90
21759;DHT22;11041;50.854;20.580;2023-12-20T00:31:04;6.30;99.90
21759;DHT22;11041;50.854;20.580;2023-12-20T00:33:33;6.30;99.90
21759;DHT22;11041;50.854;20.580;2023-12-20T00:36:03;6.20;99.90
21759;DHT22;11041;50.854;20.580;2023-12-20T00:38:30;6.20;99.90
21759;DHT22;11041;50.854;20.580;2023-12-20T00:40:58;6.30;99.90
21759;DHT22;11041;50.854;20.580;2023-12-20T00:43:25;6.30;99.90
21759;DHT22;11041;50.854;20.580;2023-12-20T00:45:57;6.30;99.90
21759;DHT22;11041;50.854;20.580;2023-12-20T00:48:26;6.20;99.90
21759;DHT22;11041;50.854;20.580;2023-12-20T00:50:59;6.20;99.90
21759;DHT22;11041;50.854;20.580;2023-12-20T00:53:29;6.20;99.90
21759;DHT22;11041;50.854;20.580;2023-12-20T00:55:58;6.30;99.90
21759;DHT22;11041;50.854;20.580;2023-12-20T00:58:30;6.20;99.90
21759;DHT22;11041;50.854;20.580;2023-12-20T01:01:02;6.30;99.90
21759;DHT22;11041;50.854;20.580;2023-12-20T01:03:31;6.30;99.90
21759;DHT22;11041;50.854;20.580;2023-12-20T01:06:07;6.30;99.90
21759;DHT22;11041;50.854;20.580;2023-12-20T01:08:37;6.30;99.90
21759;DHT22;11041;50.854;20.580;2023-12-20T01:11:06;6.30;99.90
21759;DHT22;11041;50.854;20.580;2023-12-20T01:13:35;6.30;99.90
21759;DHT22;11041;50.854;20.580;2023-12-20T01:16:09;6.30;99.90
21759;DHT22;11041;50.854;20.580;2023-12-20T01:18:37;6.10;99.90
21759;DHT22;11041;50.854;20.580;2023-12-20T01:21:05;6.00;99.90
21759;DHT22;11041;50.854;20.580;2023-12-20T01:23:36;6.00;99.90
21759;DHT22;11041;50.854;20.580;2023-12-20T01:26:07;6.00;99.90
21759;DHT22;11041;50.854;20.580;2023-12-20T01:28:34;6.00;99.90
21759;DHT22;11041;50.854;20.580;2023-12-20T01:31:08;6.00;99.90
21759;DHT22;11041;50.854;20.580;2023-12-20T01:33:39;6.00;99.90
21759;DHT22;11041;50.854;20.580;2023-12-20T01:36:10;6.00;99.90
21759;DHT22;11041;50.854;20.580;2023-12-20T01:38:37;5.90;99.90
21759;DHT22;11041;50.854;20.580;2023-12-20T01:41:05;5.90;99.90
21759;DHT22;11041;50.854;20.580;2023-12-20T01:43:36;6.00;99.90
21759;DHT22;11041;50.854;20.580;2023-12-20T01:46:06;6.00;99.90
21759;DHT22;11041;50.854;20.580;2023-12-20T01:48:37;6.10;99.90
21759;DHT22;11041;50.854;20.580;2023-12-20T01:51:10;6.10;99.90
21759;DHT22;11041;50.854;20.580;2023-12-20T01:53:40;6.00;99.90
21759;DHT22;11041;50.854;20.580;2023-12-20T01:56:09;6.00;99.90
21759;DHT22;11041;50.854;20.580;2023-12-20T01:58:43;5.90;99.90
21759;DHT22;11041;50.854;20.580;2023-12-20T02:01:13;5.80;99.90
21759;DHT22;11041;50.854;20.580;2023-12-20T02:03:44;5.90;99.90
21759;DHT22;11041;50.854;20.580;2023-12-20T02:06:18;5.90;99.90
21759;DHT22;11041;50.854;20.580;2023-12-20T02:08:50;6.00;99.90
21759;DHT22;11041;50.854;20.580;2023-12-20T02:11:17;6.00;99.90
21759;DHT22;11041;50.854;20.580;2023-12-20T02:13:46;5.90;99.90
21759;DHT22;11041;50.854;20.580;2023-12-20T02:16:17;6.00;99.90
21759;DHT22;11041;50.854;20.580;2023-12-20T02:18:47;6.00;99.90
21759;DHT22;11041;50.854;20.580;2023-12-20T02:21:15;6.00;99.90
21759;DHT22;11041;50.854;20.580;2023-12-20T02:23:44;5.90;99.90
21759;DHT22;11041;50.854;20.580;2023-12-20T02:26:14;6.00;99.90
21759;DHT22;11041;50.854;20.580;2023-12-20T02:28:47;6.00;99.90
21759;DHT22;11041;50.854;20.580;2023-12-20T02:31:20;5.90;99.90
21759;DHT22;11041;50.854;20.580;2023-12-20T02:33:49;5.90;99.90
21759;DHT22;11041;50.854;20.580;2023-12-20T02:36:21;5.80;99.90
21759;DHT22;11041;50.854;20.580;2023-12-20T02:38:52;5.90;99.90
21759;DHT22;11041;50.854;20.580;2023-12-20T02:41:19;5.90;99.90
21759;DHT22;11041;50.854;20.580;2023-12-20T02:43:49;5.90;99.90
21759;DHT22;11041;50.854;20.580;2023-12-20T02:46:20;5.80;99.90
21759;DHT22;11041;50.854;20.580;2023-12-20T02:48:49;5.90;99.90
21759;DHT22;11041;50.854;20.580;2023-12-20T02:51:18;5.90;99.90
21759;DHT22;11041;50.854;20.580;2023-12-20T02:53:50;5.80;99.90
21759;DHT22;11041;50.854;20.580;2023-12-20T02:56:19;5.80;99.90
21759;DHT22;11041;50.854;20.580;2023-12-20T02:58:46;5.80;99.90
21759;DHT22;11041;50.854;20.580;2023-12-20T03:01:14;5.90;99.90
21759;DHT22;11041;50.854;20.580;2023-12-20T03:03:41;5.80;99.90
21759;DHT22;11041;50.854;20.580;2023-12-20T03:06:11;5.90;99.90
21759;DHT22;11041;50.854;20.580;2023-12-20T03:08:48;5.90;99.90
21759;DHT22;11041;50.854;20.580;2023-12-20T03:11:18;5.90;99.90
21759;DHT22;11041;50.854;20.580;2023-12-20T03:13:47;5.90;99.90
21759;DHT22;11041;50.854;20.580;2023-12-20T03:16:15;6.00;99.90
21759;DHT22;11041;50.854;20.580;2023-12-20T03:18:45;6.00;99.90
21759;DHT22;11041;50.854;20.580;2023-12-20T03:21:16;5.90;99.90
21759;DHT22;11041;50.854;20.580;2023-12-20T03:23:47;6.00;99.90
21759;DHT22;11041;50.854;20.580;2023-12-20T03:26:17;6.00;99.90
21759;DHT22;11041;50.854;20.580;2023-12-20T03:28:48;6.10;99.90
21759;DHT22;11041;50.854;20.580;2023-12-20T03:31:18;6.10;99.90
21759;DHT22;11041;50.854;20.580;2023-12-20T03:33:48;6.10;99.90
21759;DHT22;11041;50.854;20.580;2023-12-20T03:36:18;6.10;99.90
21759;DHT22;11041;50.854;20.580;2023-12-20T03:38:46;6.00;99.90
21759;DHT22;11041;50.854;20.580;2023-12-20T03:41:15;6.00;99.90
21759;DHT22;11041;50.854;20.580;2023-12-20T03:43:44;6.10;99.90
21759;DHT22;11041;50.854;20.580;2023-12-20T03:46:15;6.00;99.90
21759;DHT22;11041;50.854;20.580;2023-12-20T03:48:46;6.00;99.90
21759;DHT22;11041;50.854;20.580;2023-12-20T03:51:15;6.10;99.90
21759;DHT22;11041;50.854;20.580;2023-12-20T03:53:48;6.10;99.90
21759;DHT22;11041;50.854;20.580;2023-12-20T03:56:15;6.00;99.90
21759;DHT22;11041;50.854;20.580;2023-12-20T03:58:47;5.90;99.90
21759;DHT22;11041;50.854;20.580;2023-12-20T04:01:17;5.90;99.90
21759;DHT22;11041;50.854;20.580;2023-12-20T04:03:47;6.00;99.90
21759;DHT22;11041;50.854;20.580;2023-12-20T04:06:20;6.00;99.90
21759;DHT22;11041;50.854;20.580;2023-12-20T04:08:47;5.90;99.90
21759;DHT22;11041;50.854;20.580;2023-12-20T04:11:17;5.80;99.90
21759;DHT22;11041;50.854;20.580;2023-12-20T04:13:43;5.80;99.90
21759;DHT22;11041;50.854;20.580;2023-12-20T04:16:15;5.80;99.90
21759;DHT22;11041;50.854;20.580;2023-12-20T04:18:43;5.80;99.90
21759;DHT22;11041;50.854;20.580;2023-12-20T04:21:15;5.90;99.90
21759;DHT22;11041;50.854;20.580;2023-12-20T04:23:45;5.90;99.90
21759;DHT22;11041;50.854;20.580;2023-12-20T04:26:16;5.90;99.90
21759;DHT22;11041;50.854;20.580;2023-12-20T04:28:45;5.90;99.90
21759;DHT22;11041;50.854;20.580;2023-12-20T04:31:15;6.00;99.90
21759;DHT22;11041;50.854;20.580;2023-12-20T04:33:43;5.90;99.90
21759;DHT22;11041;50.854;20.580;2023-12-20T04:36:10;6.00;99.90
21759;DHT22;11041;50.854;20.580;2023-12-20T04:38:36;5.90;99.90
21759;DHT22;11041;50.854;20.580;2023-12-20T04:41:03;5.80;99.90
21759;DHT22;11041;50.854;20.580;2023-12-20T04:43:31;5.90;99.90
21759;DHT22;11041;50.854;20.580;2023-12-20T04:45:58;5.90;99.90
21759;DHT22;11041;50.854;20.580;2023-12-20T04:48:25;5.90;99.90
21759;DHT22;11041;50.854;20.580;2023-12-20T04:50:53;5.80;99.90
21759;DHT22;11041;50.854;20.580;2023-12-20T04:53:19;5.80;99.90
21759;DHT22;11041;50.854;20.580;2023-12-20T04:55:47;5.80;99.90
21759;DHT22;11041;50.854;20.580;2023-12-20T04:58:15;5.80;99.90
21759;DHT22;11041;50.854;20.580;2023-12-20T05:00:43;5.80;99.90
21759;DHT22;11041;50.854;20.580;2023-12-20T05:03:12;5.80;99.90
21759;DHT22;11041;50.854;20.580;2023-12-20T05:05:39;5.80;99.90
21759;DHT22;11041;50.854;20.580;2023-12-20T05:08:05;5.80;99.90
21759;DHT22;11041;50.854;20.580;2023-12-20T05:10:33;5.80;99.90
21759;DHT22;11041;50.854;20.580;2023-12-20T05:13:02;5.70;99.90
21759;DHT22;11041;50.854;20.580;2023-12-20T05:15:29;5.80;99.90
21759;DHT22;11041;50.854;20.580;2023-12-20T05:17:56;5.80;99.90
21759;DHT22;11041;50.854;20.580;2023-12-20T05:20:23;5.80;99.90
21759;DHT22;11041;50.854;20.580;2023-12-20T05:22:50;5.80;99.90
21759;DHT22;11041;50.854;20.580;2023-12-20T05:25:18;5.70;99.90
21759;DHT22;11041;50.854;20.580;2023-12-20T05:27:46;5.70;99.90
21759;DHT22;11041;50.854;20.580;2023-12-20T05:30:15;5.70;99.90
21759;DHT22;11041;50.854;20.580;2023-12-20T05:32:45;5.60;99.90
21759;DHT22;11041;50.854;20.580;2023-12-20T05:35:13;5.60;99.90
21759;DHT22;11041;50.854;20.580;2023-12-20T05:37:45;5.60;99.90
21759;DHT22;11041;50.854;20.580;2023-12-20T05:40:12;5.70;99.90
21759;DHT22;11041;50.854;20.580;2023-12-20T05:42:38;5.80;99.90
21759;DHT22;11041;50.854;20.580;2023-12-20T05:45:09;5.80;99.90
21759;DHT22;11041;50.854;20.580;2023-12-20T05:47:38;5.80;99.90
21759;DHT22;11041;50.854;20.580;2023-12-20T05:50:06;5.80;99.90
21759;DHT22;11041;50.854;20.580;2023-12-20T05:52:33;5.80;99.90
21759;DHT22;11041;50.854;20.580;2023-12-20T05:55:04;5.80;99.90
21759;DHT22;11041;50.854;20.580;2023-12-20T05:57:30;5.70;99.90
21759;DHT22;11041;50.854;20.580;2023-12-20T06:00:02;5.60;99.90
21759;DHT22;11041;50.854;20.580;2023-12-20T06:02:32;5.70;99.90
21759;DHT22;11041;50.854;20.580;2023-12-20T06:05:00;5.60;99.90
21759;DHT22;11041;50.854;20.580;2023-12-20T06:07:27;5.50;99.90
21759;DHT22;11041;50.854;20.580;2023-12-20T06:09:57;5.60;99.90
21759;DHT22;11041;50.854;20.580;2023-12-20T06:12:26;5.60;99.90
21759;DHT22;11041;50.854;20.580;2023-12-20T06:14:56;5.50;99.90
21759;DHT22;11041;50.854;20.580;2023-12-20T06:17:23;5.50;99.90
21759;DHT22;11041;50.854;20.580;2023-12-20T06:19:50;5.40;99.90
21759;DHT22;11041;50.854;20.580;2023-12-20T06:22:16;5.50;99.90
21759;DHT22;11041;50.854;20.580;2023-12-20T06:24:43;5.60;99.90
21759;DHT22;11041;50.854;20.580;2023-12-20T06:27:09;5.50;99.90
21759;DHT22;11041;50.854;20.580;2023-12-20T06:29:37;5.50;99.90
21759;DHT22;11041;50.854;20.580;2023-12-20T06:32:09;5.60;99.90
21759;DHT22;11041;50.854;20.580;2023-12-20T06:34:39;5.50;99.90
21759;DHT22;11041;50.854;20.580;2023-12-20T06:37:07;5.50;99.90
21759;DHT22;11041;50.854;20.580;2023-12-20T06:39:36;5.50;99.90
21759;DHT22;11041;50.854;20.580;2023-12-20T06:42:03;5.50;99.90
21759;DHT22;11041;50.854;20.580;2023-12-20T06:44:30;5.60;99.90
21759;DHT22;11041;50.854;20.580;2023-12-20T06:46:57;5.50;99.90
21759;DHT22;11041;50.854;20.580;2023-12-20T06:49:24;5.40;99.90
21759;DHT22;11041;50.854;20.580;2023-12-20T06:51:51;5.40;99.90
21759;DHT22;11041;50.854;20.580;2023-12-20T06:54:19;5.40;99.90
21759;DHT22;11041;50.854;20.580;2023-12-20T06:56:45;5.40;99.90
21759;DHT22;11041;50.854;20.580;2023-12-20T06:59:12;5.40;99.90
21759;DHT22;11041;50.854;20.580;2023-12-20T07:01:40;5.40;99.90
21759;DHT22;11041;50.854;20.580;2023-12-20T07:04:09;5.40;99.90
21759;DHT22;11041;50.854;20.580;2023-12-20T07:06:36;5.40;99.90
21759;DHT22;11041;50.854;20.580;2023-12-20T07:09:03;5.40;99.90
21759;DHT22;11041;50.854;20.580;2023-12-20T07:11:29;5.50;99.90
21759;DHT22;11041;50.854;20.580;2023-12-20T07:13:56;5.50;99.90
21759;DHT22;11041;50.854;20.580;2023-12-20T07:16:25;5.60;99.90
21759;DHT22;11041;50.854;20.580;2023-12-20T07:18:55;5.40;99.90
21759;DHT22;11041;50.854;20.580;2023-12-20T07:21:25;5.40;99.90
21759;DHT22;11041;50.854;20.580;2023-12-20T07:23:59;5.40;99.90
21759;DHT22;11041;50.854;20.580;2023-12-20T07:26:28;5.40;99.90
21759;DHT22;11041;50.854;20.580;2023-12-20T07:29:00;5.40;99.90
21759;DHT22;11041;50.854;20.580;2023-12-20T07:31:29;5.40;99.90
21759;DHT22;11041;50.854;20.580;2023-12-20T07:33:58;5.40;99.90
21759;DHT22;11041;50.854;20.580;2023-12-20T07:36:26;5.50;99.90
21759;DHT22;11041;50.854;20.580;2023-12-20T07:38:55;5.40;99.90
21759;DHT22;11041;50.854;20.580;2023-12-20T07:41:21;5.40;99.90
21759;DHT22;11041;50.854;20.580;2023-12-20T07:43:50;5.40;99.90
21759;DHT22;11041;50.854;20.580;2023-12-20T07:46:16;5.40;99.90
21759;DHT22;11041;50.854;20.580;2023-12-20T07:48:44;5.30;99.90
21759;DHT22;11041;50.854;20.580;2023-12-20T07:51:15;5.30;99.90
21759;DHT22;11041;50.854;20.580;2023-12-20T07:53:42;5.30;99.90
21759;DHT22;11041;50.854;20.580;2023-12-20T07:56:18;5.30;99.90
21759;DHT22;11041;50.854;20.580;2023-12-20T07:58:46;5.50;99.90
21759;DHT22;11041;50.854;20.580;2023-12-20T08:01:15;5.40;99.90
21759;DHT22;11041;50.854;20.580;2023-12-20T08:03:42;5.40;99.90
21759;DHT22;11041;50.854;20.580;2023-12-20T08:06:08;5.40;99.90
21759;DHT22;11041;50.854;20.580;2023-12-20T08:08:36;5.40;99.90
21759;DHT22;11041;50.854;20.580;2023-12-20T08:11:04;5.40;99.90
21759;DHT22;11041;50.854;20.580;2023-12-20T08:13:32;5.40;99.90
21759;DHT22;11041;50.854;20.580;2023-12-20T08:15:58;5.30;99.90
21759;DHT22;11041;50.854;20.580;2023-12-20T08:18:25;5.30;99.90
21759;DHT22;11041;50.854;20.580;2023-12-20T08:20:52;5.20;99.90
21759;DHT22;11041;50.854;20.580;2023-12-20T08:23:20;5.20;99.90
21759;DHT22;11041;50.854;20.580;2023-12-20T08:25:47;5.30;99.90
21759;DHT22;11041;50.854;20.580;2023-12-20T08:28:14;5.20;99.90
21759;DHT22;11041;50.854;20.580;2023-12-20T08:30:42;5.20;99.90
21759;DHT22;11041;50.854;20.580;2023-12-20T08:33:09;5.20;99.90
21759;DHT22;11041;50.854;20.580;2023-12-20T08:35:44;5.20;99.90
21759;DHT22;11041;50.854;20.580;2023-12-20T08:38:10;5.20;99.90
21759;DHT22;11041;50.854;20.580;2023-12-20T08:40:39;5.20;99.90
21759;DHT22;11041;50.854;20.580;2023-12-20T08:43:08;5.20;99.90
21759;DHT22;11041;50.854;20.580;2023-12-20T08:45:37;5.20;99.90
21759;DHT22;11041;50.854;20.580;2023-12-20T08:48:05;5.20;99.90
21759;DHT22;11041;50.854;20.580;2023-12-20T08:50:36;5.20;99.90
21759;DHT22;11041;50.854;20.580;2023-12-20T08:53:07;5.20;99.90
21759;DHT22;11041;50.854;20.580;2023-12-20T08:55:37;5.10;99.90
21759;DHT22;11041;50.854;20.580;2023-12-20T08:58:06;5.20;99.90
21759;DHT22;11041;50.854;20.580;2023-12-20T09:00:36;5.10;99.90
21759;DHT22;11041;50.854;20.580;2023-12-20T09:03:07;5.20;99.90
21759;DHT22;11041;50.854;20.580;2023-12-20T09:05:39;5.10;99.90
21759;DHT22;11041;50.854;20.580;2023-12-20T09:08:07;5.10;99.90
21759;DHT22;11041;50.854;20.580;2023-12-20T09:10:35;5.10;99.90
21759;DHT22;11041;50.854;20.580;2023-12-20T09:13:04;5.10;99.90
21759;DHT22;11041;50.854;20.580;2023-12-20T09:15:30;5.10;99.90
21759;DHT22;11041;50.854;20.580;2023-12-20T09:17:57;5.10;99.90
21759;DHT22;11041;50.854;20.580;2023-12-20T09:20:26;5.00;99.90
21759;DHT22;11041;50.854;20.580;2023-12-20T09:22:57;5.00;99.90
21759;DHT22;11041;50.854;20.580;2023-12-20T09:25:23;5.10;99.90
21759;DHT22;11041;50.854;20.580;2023-12-20T09:27:55;5.10;99.90
21759;DHT22;11041;50.854;20.580;2023-12-20T09:30:24;5.20;99.90
21759;DHT22;11041;50.854;20.580;2023-12-20T09:32:53;5.30;99.90
21759;DHT22;11041;50.854;20.580;2023-12-20T09:35:22;5.20;99.90
21759;DHT22;11041;50.854;20.580;2023-12-20T09:37:52;5.10;99.90
21759;DHT22;11041;50.854;20.580;2023-12-20T09:40:19;5.20;99.90
21759;DHT22;11041;50.854;20.580;2023-12-20T09:43:04;5.20;99.90
21759;DHT22;11041;50.854;20.580;2023-12-20T09:45:34;5.10;99.90
21759;DHT22;11041;50.854;20.580;2023-12-20T09:48:01;5.00;99.90
21759;DHT22;11041;50.854;20.580;2023-12-20T09:50:31;5.00;99.90
21759;DHT22;11041;50.854;20.580;2023-12-20T09:53:02;5.10;99.90
21759;DHT22;11041;50.854;20.580;2023-12-20T09:55:36;5.20;99.90
21759;DHT22;11041;50.854;20.580;2023-12-20T09:58:06;5.20;99.90
21759;DHT22;11041;50.854;20.580;2023-12-20T10:00:37;5.20;99.90
21759;DHT22;11041;50.854;20.580;2023-12-20T10:03:06;5.00;99.90
21759;DHT22;11041;50.854;20.580;2023-12-20T10:05:34;5.10;99.90
21759;DHT22;11041;50.854;20.580;2023-12-20T10:08:01;5.10;99.90
21759;DHT22;11041;50.854;20.580;2023-12-20T10:10:29;5.10;99.90
21759;DHT22;11041;50.854;20.580;2023-12-20T10:13:07;5.00;99.90
21759;DHT22;11041;50.854;20.580;2023-12-20T10:15:35;5.00;99.90
21759;DHT22;11041;50.854;20.580;2023-12-20T10:18:05;5.00;99.90
21759;DHT22;11041;50.854;20.580;2023-12-20T10:20:39;5.00;99.90
21759;DHT22;11041;50.854;20.580;2023-12-20T10:23:08;5.00;99.90
21759;DHT22;11041;50.854;20.580;2023-12-20T10:25:37;5.00;99.90
21759;DHT22;11041;50.854;20.580;2023-12-20T10:28:12;5.00;99.90
21759;DHT22;11041;50.854;20.580;2023-12-20T10:30:41;5.00;99.90
21759;DHT22;11041;50.854;20.580;2023-12-20T10:33:10;5.00;99.90
21759;DHT22;11041;50.854;20.580;2023-12-20T10:35:39;4.90;99.90
21759;DHT22;11041;50.854;20.580;2023-12-20T10:38:07;4.80;99.90
21759;DHT22;11041;50.854;20.580;2023-12-20T10:40:36;4.80;99.90
21759;DHT22;11041;50.854;20.580;2023-12-20T10:43:06;4.80;99.90
21759;DHT22;11041;50.854;20.580;2023-12-20T10:45:34;4.90;99.90
21759;DHT22;11041;50.854;20.580;2023-12-20T10:48:02;4.90;99.90
21759;DHT22;11041;50.854;20.580;2023-12-20T10:50:30;4.90;99.90
21759;DHT22;11041;50.854;20.580;2023-12-20T10:53:00;5.00;99.90
21759;DHT22;11041;50.854;20.580;2023-12-20T10:55:28;5.10;99.90
21759;DHT22;11041;50.854;20.580;2023-12-20T10:58:02;5.00;99.90
21759;DHT22;11041;50.854;20.580;2023-12-20T11:00:38;4.90;99.90
21759;DHT22;11041;50.854;20.580;2023-12-20T11:03:11;5.00;99.90
21759;DHT22;11041;50.854;20.580;2023-12-20T11:05:50;4.90;99.90
21759;DHT22;11041;50.854;20.580;2023-12-20T11:09:24;4.90;99.90
21759;DHT22;11041;50.854;20.580;2023-12-20T11:12:18;5.00;99.90
21759;DHT22;11041;50.854;20.580;2023-12-20T11:14:57;5.20;99.90
21759;DHT22;11041;50.854;20.580;2023-12-20T11:17:31;5.10;99.90
21759;DHT22;11041;50.854;20.580;2023-12-20T11:22:26;5.00;99.90
21759;DHT22;11041;50.854;20.580;2023-12-20T11:25:10;5.20;99.90
21759;DHT22;11041;50.854;20.580;2023-12-20T11:27:42;5.10;99.90
21759;DHT22;11041;50.854;20.580;2023-12-20T11:30:10;5.00;99.90
21759;DHT22;11041;50.854;20.580;2023-12-20T11:32:40;5.00;99.90
21759;DHT22;11041;50.854;20.580;2023-12-20T11:37:40;4.90;99.90
21759;DHT22;11041;50.854;20.580;2023-12-20T11:40:16;4.80;99.90
21759;DHT22;11041;50.854;20.580;2023-12-20T11:42:49;4.80;99.90
21759;DHT22;11041;50.854;20.580;2023-12-20T11:45:19;4.80;99.90
21759;DHT22;11041;50.854;20.580;2023-12-20T11:47:48;4.90;99.90
21759;DHT22;11041;50.854;20.580;2023-12-20T11:50:22;4.70;99.90
21759;DHT22;11041;50.854;20.580;2023-12-20T11:52:51;4.80;99.90
21759;DHT22;11041;50.854;20.580;2023-12-20T11:55:19;4.80;99.90
21759;DHT22;11041;50.854;20.580;2023-12-20T11:57:49;4.70;99.90
21759;DHT22;11041;50.854;20.580;2023-12-20T12:00:21;4.80;99.90
21759;DHT22;11041;50.854;20.580;2023-12-20T12:02:58;4.80;99.90
21759;DHT22;11041;50.854;20.580;2023-12-20T12:05:25;4.70;99.90
21759;DHT22;11041;50.854;20.580;2023-12-20T12:07:52;4.80;99.90
21759;DHT22;11041;50.854;20.580;2023-12-20T12:10:19;4.80;99.90
21759;DHT22;11041;50.854;20.580;2023-12-20T12:12:46;4.70;99.90
21759;DHT22;11041;50.854;20.580;2023-12-20T12:15:14;4.70;99.90
21759;DHT22;11041;50.854;20.580;2023-12-20T12:17:40;4.70;99.90
21759;DHT22;11041;50.854;20.580;2023-12-20T12:20:07;4.70;99.90
21759;DHT22;11041;50.854;20.580;2023-12-20T12:22:36;4.70;99.90
21759;DHT22;11041;50.854;20.580;2023-12-20T12:25:12;4.60;99.90
21759;DHT22;11041;50.854;20.580;2023-12-20T12:27:41;4.70;99.90
21759;DHT22;11041;50.854;20.580;2023-12-20T12:30:08;4.70;99.90
21759;DHT22;11041;50.854;20.580;2023-12-20T12:32:36;4.70;99.90
21759;DHT22;11041;50.854;20.580;2023-12-20T12:35:04;4.80;99.90
21759;DHT22;11041;50.854;20.580;2023-12-20T12:37:36;4.90;99.90
21759;DHT22;11041;50.854;20.580;2023-12-20T12:40:10;4.80;99.90
21759;DHT22;11041;50.854;20.580;2023-12-20T12:42:41;4.80;99.90
21759;DHT22;11041;50.854;20.580;2023-12-20T12:45:09;4.70;99.90
21759;DHT22;11041;50.854;20.580;2023-12-20T12:47:37;4.80;99.90
21759;DHT22;11041;50.854;20.580;2023-12-20T12:50:05;4.80;99.90
21759;DHT22;11041;50.854;20.580;2023-12-20T12:52:31;4.70;99.90
21759;DHT22;11041;50.854;20.580;2023-12-20T12:54:59;4.80;99.90
21759;DHT22;11041;50.854;20.580;2023-12-20T12:57:26;4.70;99.90
21759;DHT22;11041;50.854;20.580;2023-12-20T12:59:52;4.80;99.90
21759;DHT22;11041;50.854;20.580;2023-12-20T13:02:19;4.80;99.90
21759;DHT22;11041;50.854;20.580;2023-12-20T13:04:45;4.80;99.90
21759;DHT22;11041;50.854;20.580;2023-12-20T13:07:12;4.80;99.90
21759;DHT22;11041;50.854;20.580;2023-12-20T13:09:39;4.70;99.90
21759;DHT22;11041;50.854;20.580;2023-12-20T13:12:06;4.70;99.90
21759;DHT22;11041;50.854;20.580;2023-12-20T13:14:34;4.80;99.90
21759;DHT22;11041;50.854;20.580;2023-12-20T13:17:04;4.70;99.90
21759;DHT22;11041;50.854;20.580;2023-12-20T13:19:32;4.70;99.90
21759;DHT22;11041;50.854;20.580;2023-12-20T13:21:58;4.70;99.90
21759;DHT22;11041;50.854;20.580;2023-12-20T13:24:25;4.70;99.90
21759;DHT22;11041;50.854;20.580;2023-12-20T13:26:51;4.80;99.90
21759;DHT22;11041;50.854;20.580;2023-12-20T13:29:18;4.70;99.90
21759;DHT22;11041;50.854;20.580;2023-12-20T13:31:44;4.80;99.90
21759;DHT22;11041;50.854;20.580;2023-12-20T13:34:11;4.80;99.90
21759;DHT22;11041;50.854;20.580;2023-12-20T13:36:38;4.70;99.90
21759;DHT22;11041;50.854;20.580;2023-12-20T13:39:05;4.80;99.90
21759;DHT22;11041;50.854;20.580;2023-12-20T13:41:32;4.70;99.90
21759;DHT22;11041;50.854;20.580;2023-12-20T13:43:59;4.70;99.90
21759;DHT22;11041;50.854;20.580;2023-12-20T13:46:27;4.70;99.90
21759;DHT22;11041;50.854;20.580;2023-12-20T13:48:54;4.80;99.90
21759;DHT22;11041;50.854;20.580;2023-12-20T13:51:20;4.80;99.90
21759;DHT22;11041;50.854;20.580;2023-12-20T13:53:47;4.80;99.90
21759;DHT22;11041;50.854;20.580;2023-12-20T13:56:15;4.80;99.90
21759;DHT22;11041;50.854;20.580;2023-12-20T13:58:42;4.80;99.90
21759;DHT22;11041;50.854;20.580;2023-12-20T14:01:10;4.80;99.90
21759;DHT22;11041;50.854;20.580;2023-12-20T14:03:38;4.80;99.90
21759;DHT22;11041;50.854;20.580;2023-12-20T14:06:05;4.80;99.90
21759;DHT22;11041;50.854;20.580;2023-12-20T14:08:33;4.70;99.90
21759;DHT22;11041;50.854;20.580;2023-12-20T14:10:59;4.80;99.90
21759;DHT22;11041;50.854;20.580;2023-12-20T14:13:27;4.80;99.90
21759;DHT22;11041;50.854;20.580;2023-12-20T14:15:55;4.80;99.90
21759;DHT22;11041;50.854;20.580;2023-12-20T14:18:23;4.90;99.90
21759;DHT22;11041;50.854;20.580;2023-12-20T14:20:51;4.80;99.90
21759;DHT22;11041;50.854;20.580;2023-12-20T14:23:20;4.80;99.90
21759;DHT22;11041;50.854;20.580;2023-12-20T14:25:47;4.70;99.90
21759;DHT22;11041;50.854;20.580;2023-12-20T14:28:15;4.70;99.90
21759;DHT22;11041;50.854;20.580;2023-12-20T14:30:42;4.80;99.90
21759;DHT22;11041;50.854;20.580;2023-12-20T14:33:10;4.70;99.90
21759;DHT22;11041;50.854;20.580;2023-12-20T14:35:37;4.80;99.90
21759;DHT22;11041;50.854;20.580;2023-12-20T14:38:04;4.80;99.90
21759;DHT22;11041;50.854;20.580;2023-12-20T14:40:30;4.70;99.90
21759;DHT22;11041;50.854;20.580;2023-12-20T14:42:57;4.70;99.90
21759;DHT22;11041;50.854;20.580;2023-12-20T14:45:27;4.70;99.90
21759;DHT22;11041;50.854;20.580;2023-12-20T14:47:54;4.70;99.90
21759;DHT22;11041;50.854;20.580;2023-12-20T14:50:26;4.60;99.90
21759;DHT22;11041;50.854;20.580;2023-12-20T14:52:55;4.50;99.90
21759;DHT22;11041;50.854;20.580;2023-12-20T14:55:22;4.50;99.90
21759;DHT22;11041;50.854;20.580;2023-12-20T14:57:49;4.50;99.90
21759;DHT22;11041;50.854;20.580;2023-12-20T15:00:21;4.50;99.90
21759;DHT22;11041;50.854;20.580;2023-12-20T15:02:48;4.40;99.90
21759;DHT22;11041;50.854;20.580;2023-12-20T15:05:17;4.50;99.90
21759;DHT22;11041;50.854;20.580;2023-12-20T15:07:45;4.60;99.90
21759;DHT22;11041;50.854;20.580;2023-12-20T15:10:18;4.60;99.90
21759;DHT22;11041;50.854;20.580;2023-12-20T15:12:51;4.60;99.90
21759;DHT22;11041;50.854;20.580;2023-12-20T15:15:18;4.60;99.90
21759;DHT22;11041;50.854;20.580;2023-12-20T15:17:48;4.60;99.90
21759;DHT22;11041;50.854;20.580;2023-12-20T15:20:19;4.60;99.90
21759;DHT22;11041;50.854;20.580;2023-12-20T15:22:50;4.60;99.90
21759;DHT22;11041;50.854;20.580;2023-12-20T15:25:22;4.60;99.90
21759;DHT22;11041;50.854;20.580;2023-12-20T15:27:53;4.60;99.90
21759;DHT22;11041;50.854;20.580;2023-12-20T15:30:27;4.60;99.90
21759;DHT22;11041;50.854;20.580;2023-12-20T15:32:56;4.60;99.90
21759;DHT22;11041;50.854;20.580;2023-12-20T15:35:28;4.60;99.90
21759;DHT22;11041;50.854;20.580;2023-12-20T15:37:59;4.60;99.90
21759;DHT22;11041;50.854;20.580;2023-12-20T15:40:28;4.60;99.90
21759;DHT22;11041;50.854;20.580;2023-12-20T15:42:56;4.60;99.90
21759;DHT22;11041;50.854;20.580;2023-12-20T15:45:26;4.60;99.90
21759;DHT22;11041;50.854;20.580;2023-12-20T15:47:54;4.60;99.90